createdAt,value
2023-04-11T00:01:30.145Z,20.53
2023-04-11T00:03:58.242Z,20.44
2023-04-11T00:06:26.478Z,20.50
2023-04-11T00:08:54.491Z,20.18
2023-04-11T00:11:22.376Z,20.48
2023-04-11T00:13:50.277Z,20.30
2023-04-11T00:16:19.852Z,20.55
2023-04-11T00:18:47.726Z,20.29
2023-04-11T00:21:15.912Z,20.54
2023-04-11T00:23:43.693Z,20.44
2023-04-11T00:26:11.908Z,20.49
2023-04-11T00:28:40.694Z,20.33
2023-04-11T00:31:08.626Z,20.32
2023-04-11T00:33:36.919Z,20.53
2023-04-11T00:36:06.292Z,20.34
2023-04-11T00:38:34.198Z,20.54
2023-04-11T00:41:02.326Z,20.07
2023-04-11T00:43:30.209Z,20.20
2023-04-11T00:45:59.719Z,20.46
2023-04-11T00:48:28.785Z,20.00
2023-04-11T00:50:56.790Z,20.45
2023-04-11T00:53:24.957Z,20.30
2023-04-11T00:55:52.921Z,20.39
2023-04-11T00:58:20.697Z,20.49
2023-04-11T01:00:51.748Z,20.50
2023-04-11T01:03:19.990Z,20.30
2023-04-11T01:05:54.762Z,20.26
2023-04-11T01:08:23.167Z,20.14
2023-04-11T01:10:53.420Z,20.46
2023-04-11T01:13:21.309Z,20.33
2023-04-11T01:15:49.264Z,20.16
2023-04-11T01:18:17.034Z,20.34
2023-04-11T01:20:44.955Z,20.18
2023-04-11T01:23:14.520Z,20.24
2023-04-11T01:25:42.719Z,20.37
2023-04-11T01:28:11.848Z,19.99
2023-04-11T01:30:39.677Z,20.30
2023-04-11T01:33:07.911Z,20.39
2023-04-11T01:35:35.874Z,20.11
2023-04-11T01:38:04.876Z,20.39
2023-04-11T01:40:33.633Z,20.31
2023-04-11T01:43:04.657Z,20.27
2023-04-11T01:45:33.053Z,20.34
2023-04-11T01:48:05.810Z,20.37
2023-04-11T01:50:33.677Z,20.41
2023-04-11T01:53:01.861Z,20.42
2023-04-11T01:55:30.794Z,20.09
2023-04-11T01:57:59.298Z,20.43
2023-04-11T02:00:27.116Z,20.22
2023-04-11T02:02:54.868Z,20.39
2023-04-11T02:05:24.147Z,20.24
2023-04-11T02:07:52.022Z,20.12
2023-04-11T02:10:19.804Z,20.34
2023-04-11T02:12:47.660Z,20.38
2023-04-11T02:15:15.483Z,20.21
2023-04-11T02:17:45.581Z,20.35
2023-04-11T02:20:14.310Z,20.35
2023-04-11T02:22:42.122Z,20.28
2023-04-11T02:25:10.135Z,20.23
2023-04-11T02:27:37.902Z,20.23
2023-04-11T02:30:06.438Z,20.27
2023-04-11T02:32:35.438Z,20.17
2023-04-11T02:35:05.103Z,20.18
2023-04-11T02:37:32.988Z,18.77
2023-04-11T02:40:02.570Z,20.17
2023-04-11T02:42:31.035Z,20.25
2023-04-11T02:45:00.261Z,20.18
2023-04-11T02:47:30.428Z,20.04
2023-04-11T02:50:03.279Z,19.86
2023-04-11T02:52:39.566Z,20.26
2023-04-11T02:55:07.665Z,20.21
2023-04-11T02:57:38.697Z,20.28
2023-04-11T03:00:10.421Z,20.04
2023-04-11T03:02:46.873Z,20.21
2023-04-11T03:05:15.906Z,20.28
2023-04-11T03:07:50.148Z,19.92
2023-04-11T03:10:18.142Z,20.14
2023-04-11T03:12:46.322Z,19.93
2023-04-11T03:15:17.941Z,19.88
2023-04-11T03:17:46.073Z,19.57
2023-04-11T03:20:19.899Z,20.28
2023-04-11T03:22:51.517Z,20.16
2023-04-11T03:25:20.621Z,20.04
2023-04-11T03:27:51.473Z,20.15
2023-04-11T03:30:19.321Z,20.03
2023-04-11T03:32:48.873Z,19.99
2023-04-11T03:35:18.889Z,20.11
2023-04-11T03:37:48.337Z,19.78
2023-04-11T03:40:18.952Z,19.97
2023-04-11T03:42:52.570Z,20.20
2023-04-11T03:45:25.391Z,20.10
2023-04-11T03:47:55.257Z,20.05
2023-04-11T03:50:28.371Z,20.17
2023-04-11T03:53:00.868Z,20.07
2023-04-11T03:55:29.909Z,20.14
2023-04-11T03:57:58.536Z,20.08
2023-04-11T04:00:28.664Z,20.08
2023-04-11T04:03:04.890Z,20.07
2023-04-11T04:05:33.050Z,19.90
2023-04-11T04:08:01.225Z,20.16
2023-04-11T04:10:43.012Z,20.15
2023-04-11T04:13:11.879Z,20.07
2023-04-11T04:15:43.211Z,20.09
2023-04-11T04:18:13.410Z,20.11
2023-04-11T04:20:44.757Z,19.75
2023-04-11T04:23:14.294Z,19.83
2023-04-11T04:25:58.391Z,19.79
2023-04-11T04:28:29.357Z,20.14
2023-04-11T04:30:59.678Z,19.91
2023-04-11T04:33:33.346Z,20.18
2023-04-11T04:36:10.312Z,20.20
2023-04-11T04:38:42.332Z,19.86
2023-04-11T04:41:22.279Z,20.05
2023-04-11T04:43:58.454Z,20.26
2023-04-11T04:46:56.793Z,20.26
2023-04-11T04:49:28.681Z,20.25
2023-04-11T04:51:56.378Z,20.05
2023-04-11T04:54:24.426Z,19.91
2023-04-11T04:56:54.297Z,20.22
2023-04-11T04:59:23.371Z,19.90
2023-04-11T05:01:57.783Z,20.14
2023-04-11T05:04:30.547Z,20.19
2023-04-11T05:07:00.857Z,20.19
2023-04-11T05:09:31.015Z,20.00
2023-04-11T05:12:09.326Z,19.84
2023-04-11T05:14:39.993Z,19.98
2023-04-11T05:17:08.203Z,20.04
2023-04-11T05:19:38.676Z,20.19
2023-04-11T05:22:06.412Z,20.01
2023-04-11T05:24:38.705Z,19.76
2023-04-11T05:27:09.384Z,20.18
2023-04-11T05:29:37.467Z,19.92
2023-04-11T05:32:05.911Z,20.27
2023-04-11T05:34:56.671Z,20.28
2023-04-11T05:37:50.495Z,19.79
2023-04-11T05:40:20.170Z,20.25
2023-04-11T05:42:53.139Z,19.94
2023-04-11T05:45:21.030Z,20.09
2023-04-11T05:47:49.972Z,18.75
2023-04-11T05:50:18.210Z,19.60
2023-04-11T05:52:46.205Z,20.28
2023-04-11T05:55:15.112Z,20.25
2023-04-11T05:57:42.830Z,19.97
2023-04-11T06:00:16.648Z,20.17
2023-04-11T06:02:45.059Z,20.07
2023-04-11T06:05:13.178Z,20.02
2023-04-11T06:07:41.655Z,20.08
2023-04-11T06:10:10.560Z,20.03
2023-04-11T06:12:41.285Z,19.86
2023-04-11T06:15:09.855Z,20.30
2023-04-11T06:17:38.658Z,20.19
2023-04-11T06:20:08.646Z,20.07
2023-04-11T06:22:36.723Z,20.14
2023-04-11T06:25:04.911Z,20.30
2023-04-11T06:27:33.162Z,20.19
2023-04-11T06:30:04.514Z,19.92
2023-04-11T06:32:32.327Z,20.22
2023-04-11T06:35:00.736Z,20.31
2023-04-11T06:37:29.968Z,20.32
2023-04-11T06:40:01.459Z,20.06
2023-04-11T06:42:30.111Z,20.09
2023-04-11T06:44:58.877Z,20.23
2023-04-11T06:47:26.800Z,20.25
2023-04-11T06:49:55.771Z,20.34
2023-04-11T06:52:24.581Z,20.38
2023-04-11T06:54:53.950Z,20.40
2023-04-11T06:57:22.326Z,20.42
2023-04-11T06:59:50.108Z,20.43
2023-04-11T07:02:18.044Z,20.43
2023-04-11T07:04:46.312Z,20.09
2023-04-11T07:07:14.279Z,19.97
2023-04-11T07:09:43.504Z,20.41
2023-04-11T07:12:11.269Z,20.38
2023-04-11T07:14:39.671Z,20.38
2023-04-11T07:17:07.635Z,20.22
2023-04-11T07:19:35.639Z,20.39
2023-04-11T07:22:04.482Z,19.98
2023-04-11T07:24:32.604Z,20.33
2023-04-11T07:27:01.992Z,20.34
2023-04-11T07:29:30.026Z,20.36
2023-04-11T07:32:00.396Z,19.79
2023-04-11T07:34:28.348Z,20.07
2023-04-11T07:37:01.379Z,20.42
2023-04-11T07:39:29.188Z,20.40
2023-04-11T07:41:56.962Z,20.27
2023-04-11T07:44:24.938Z,20.13
2023-04-11T07:46:52.882Z,20.20
2023-04-11T07:49:20.797Z,20.40
2023-04-11T07:51:48.740Z,20.08
2023-04-11T07:54:16.964Z,20.24
2023-04-11T07:56:46.572Z,20.42
2023-04-11T07:59:16.197Z,20.40
2023-04-11T08:01:44.152Z,20.43
2023-04-11T08:04:12.413Z,20.38
2023-04-11T08:06:40.343Z,20.17
2023-04-11T08:09:08.476Z,20.03
2023-04-11T08:11:36.754Z,20.34
2023-04-11T08:14:04.543Z,20.29
2023-04-11T08:16:35.819Z,20.44
2023-04-11T08:19:03.575Z,20.44
2023-04-11T08:21:32.419Z,19.95
2023-04-11T08:24:00.338Z,20.23
2023-04-11T08:26:29.386Z,20.29
2023-04-11T08:28:57.174Z,20.48
2023-04-11T08:31:25.790Z,20.03
2023-04-11T08:33:53.660Z,20.47
2023-04-11T08:36:21.489Z,20.54
2023-04-11T08:38:52.003Z,20.46
2023-04-11T08:41:19.767Z,20.44
2023-04-11T08:43:48.116Z,20.32
2023-04-11T08:46:18.060Z,20.57
2023-04-11T08:48:46.106Z,20.52
2023-04-11T08:51:14.844Z,20.60
2023-04-11T08:53:43.491Z,20.10
2023-04-11T08:56:17.229Z,20.54
2023-04-11T08:58:45.659Z,20.57
2023-04-11T09:01:34.268Z,20.50
2023-04-11T09:04:05.436Z,20.60
2023-04-11T09:06:34.375Z,20.49
2023-04-11T09:09:08.294Z,20.64
2023-04-11T09:11:53.622Z,20.65
2023-04-11T09:14:26.474Z,20.66
2023-04-11T09:17:02.577Z,20.44
2023-04-11T09:19:33.448Z,20.51
2023-04-11T09:22:07.156Z,20.70
2023-04-11T09:24:36.280Z,20.48
2023-04-11T09:27:17.074Z,20.78
2023-04-11T09:29:46.702Z,20.77
2023-04-11T09:32:36.121Z,20.71
2023-04-11T09:35:16.050Z,20.79
2023-04-11T09:37:49.361Z,20.71
2023-04-11T09:40:19.956Z,20.82
2023-04-11T09:42:48.959Z,20.60
2023-04-11T09:45:23.591Z,20.82
2023-04-11T09:47:53.629Z,20.24
2023-04-11T09:50:23.049Z,20.84
2023-04-11T09:52:53.013Z,20.59
2023-04-11T09:55:23.017Z,20.74
2023-04-11T09:57:52.947Z,20.82
2023-04-11T10:00:32.448Z,20.81
2023-04-11T10:03:01.052Z,20.76
2023-04-11T10:05:30.654Z,20.56
2023-04-11T10:08:32.950Z,20.87
2023-04-11T10:11:02.123Z,20.71
2023-04-11T10:13:39.527Z,20.89
2023-04-11T10:16:15.672Z,20.85
2023-04-11T10:18:52.854Z,20.90
2023-04-11T10:21:33.454Z,20.97
2023-04-11T10:24:18.388Z,21.01
2023-04-11T10:26:50.612Z,21.07
2023-04-11T10:29:33.214Z,21.07
2023-04-11T10:32:21.620Z,20.92
2023-04-11T10:34:55.793Z,21.01
2023-04-11T10:37:37.262Z,20.84
2023-04-11T10:40:10.186Z,20.89
2023-04-11T10:42:43.832Z,20.76
2023-04-11T10:45:24.757Z,20.97
2023-04-11T10:48:08.118Z,21.01
2023-04-11T10:50:42.538Z,20.61
2023-04-11T10:53:34.251Z,21.06
2023-04-11T10:56:03.865Z,20.64
2023-04-11T10:58:40.934Z,21.06
2023-04-11T11:01:21.419Z,21.16
2023-04-11T11:04:00.363Z,21.02
2023-04-11T11:06:29.702Z,20.92
2023-04-11T11:09:00.357Z,21.04
2023-04-11T11:11:28.451Z,21.16
2023-04-11T11:13:56.837Z,21.24
2023-04-11T11:16:26.777Z,21.05
2023-04-11T11:18:57.839Z,21.23
2023-04-11T11:21:28.806Z,21.33
2023-04-11T11:24:03.835Z,21.30
2023-04-11T11:26:41.633Z,21.25
2023-04-11T11:29:10.925Z,21.33
2023-04-11T11:31:45.973Z,21.32
2023-04-11T11:34:28.516Z,21.32
2023-04-11T11:36:56.745Z,21.31
2023-04-11T11:39:26.138Z,21.15
2023-04-11T11:41:54.108Z,21.33
2023-04-11T11:44:28.315Z,21.27
2023-04-11T11:47:07.377Z,21.30
2023-04-11T11:49:56.838Z,21.29
2023-04-11T11:52:34.586Z,21.20
2023-04-11T11:55:08.720Z,21.32
2023-04-11T11:57:44.921Z,21.22
2023-04-11T12:00:15.299Z,21.27
2023-04-11T12:02:44.698Z,21.25
2023-04-11T12:05:12.960Z,21.18
2023-04-11T12:07:41.068Z,21.24
2023-04-11T12:10:13.845Z,21.47
2023-04-11T12:12:53.111Z,21.44
2023-04-11T12:15:25.759Z,21.40
2023-04-11T12:17:58.186Z,21.41
2023-04-11T12:20:27.435Z,21.39
2023-04-11T12:22:56.457Z,21.39
2023-04-11T12:25:26.130Z,21.42
2023-04-11T12:27:54.434Z,21.22
2023-04-11T12:30:23.335Z,21.37
2023-04-11T12:32:51.423Z,21.42
2023-04-11T12:35:19.579Z,21.34
2023-04-11T12:37:47.505Z,21.34
2023-04-11T12:40:15.780Z,21.10
2023-04-11T12:42:56.234Z,21.37
2023-04-11T12:45:26.252Z,21.08
2023-04-11T12:47:54.932Z,21.12
2023-04-11T12:50:25.829Z,21.09
2023-04-11T12:52:53.807Z,21.19
2023-04-11T12:55:22.494Z,21.11
2023-04-11T12:57:50.417Z,21.43
2023-04-11T13:00:18.624Z,21.13
2023-04-11T13:02:47.115Z,20.92
2023-04-11T13:05:15.814Z,21.47
2023-04-11T13:07:45.558Z,21.44
2023-04-11T13:10:19.866Z,21.40
2023-04-11T13:12:51.352Z,21.44
2023-04-11T13:15:19.972Z,21.01
2023-04-11T13:17:47.917Z,21.30
2023-04-11T13:20:15.676Z,21.31
2023-04-11T13:22:43.760Z,21.42
2023-04-11T13:25:12.485Z,21.41
2023-04-11T13:27:41.957Z,21.16
2023-04-11T13:30:10.759Z,21.42
2023-04-11T13:32:38.917Z,21.37
2023-04-11T13:35:07.505Z,21.35
2023-04-11T13:37:35.700Z,21.07
2023-04-11T13:40:06.635Z,21.10
2023-04-11T13:42:36.766Z,21.07
2023-04-11T13:45:04.874Z,21.28
2023-04-11T13:47:32.583Z,21.39
2023-04-11T13:50:01.581Z,21.27
2023-04-11T13:52:29.419Z,21.17
2023-04-11T13:54:57.529Z,21.23
2023-04-11T13:57:25.511Z,21.13
2023-04-11T13:59:53.242Z,21.30
2023-04-11T14:02:21.321Z,21.29
2023-04-11T14:04:49.761Z,21.45
2023-04-11T14:07:17.842Z,21.45
2023-04-11T14:09:46.060Z,21.39
2023-04-11T14:12:13.647Z,21.45
2023-04-11T14:14:42.436Z,20.33
2023-04-11T14:17:10.753Z,20.96
2023-04-11T14:19:38.997Z,21.54
2023-04-11T14:22:07.065Z,21.43
2023-04-11T14:24:35.132Z,21.42
2023-04-11T14:27:03.393Z,21.45
2023-04-11T14:29:31.555Z,21.31
2023-04-11T14:31:59.479Z,19.96
2023-04-11T14:34:28.801Z,21.35
2023-04-11T14:36:57.619Z,21.07
2023-04-11T14:39:25.714Z,21.15
2023-04-11T14:41:53.752Z,21.03
2023-04-11T14:44:21.419Z,21.22
2023-04-11T14:46:49.767Z,21.32
2023-04-11T14:49:17.714Z,21.21
2023-04-11T14:51:46.146Z,21.26
2023-04-11T14:54:14.185Z,20.92
2023-04-11T14:56:42.296Z,21.33
2023-04-11T14:59:11.547Z,21.20
2023-04-11T15:01:39.783Z,21.17
2023-04-11T15:04:07.928Z,21.26
2023-04-11T15:06:36.324Z,20.88
2023-04-11T15:09:04.844Z,21.16
2023-04-11T15:11:33.389Z,21.16
2023-04-11T15:14:01.480Z,21.13
2023-04-11T15:16:29.342Z,21.12
2023-04-11T15:18:57.343Z,21.09
2023-04-11T15:21:26.840Z,21.17
2023-04-11T15:23:56.355Z,21.23
2023-04-11T15:26:24.627Z,20.75
2023-04-11T15:28:52.592Z,20.86
2023-04-11T15:31:28.460Z,20.90
2023-04-11T15:34:03.643Z,21.18
2023-04-11T15:36:33.935Z,21.09
2023-04-11T15:39:02.329Z,20.84
2023-04-11T15:41:32.067Z,21.10
2023-04-11T15:44:02.762Z,21.04
2023-04-11T15:46:31.030Z,20.71
2023-04-11T15:48:58.840Z,21.13
2023-04-11T15:51:27.342Z,21.12
2023-04-11T15:53:55.669Z,21.11
2023-04-11T15:56:23.693Z,21.11
2023-04-11T15:58:51.444Z,20.98
2023-04-11T16:01:25.966Z,21.13
2023-04-11T16:03:54.424Z,21.07
2023-04-11T16:06:22.747Z,20.62
2023-04-11T16:08:51.300Z,20.94
2023-04-11T16:11:19.414Z,20.78
2023-04-11T16:13:48.706Z,20.79
2023-04-11T16:16:16.615Z,21.07
2023-04-11T16:18:44.755Z,21.11
2023-04-11T16:21:14.158Z,21.17
2023-04-11T16:23:42.911Z,20.78
2023-04-11T16:26:12.073Z,21.19
2023-04-11T16:28:39.932Z,21.20
2023-04-11T16:31:08.032Z,20.67
2023-04-11T16:33:37.872Z,20.89
2023-04-11T16:36:08.798Z,21.15
2023-04-11T16:38:37.121Z,21.24
2023-04-11T16:41:06.217Z,21.21
2023-04-11T16:43:33.872Z,21.06
2023-04-11T16:46:02.130Z,21.13
2023-04-11T16:48:31.767Z,21.18
2023-04-11T16:50:59.682Z,21.24
2023-04-11T16:53:27.670Z,21.26
2023-04-11T16:55:57.270Z,21.01
2023-04-11T16:58:25.008Z,21.21
2023-04-11T17:00:53.256Z,21.02
2023-04-11T17:03:22.120Z,21.11
2023-04-11T17:05:50.083Z,20.91
2023-04-11T17:08:18.352Z,20.40
2023-04-11T17:10:46.561Z,21.09
2023-04-11T17:13:16.105Z,20.64
2023-04-11T17:15:45.807Z,20.31
2023-04-11T17:18:15.178Z,21.14
2023-04-11T17:20:43.762Z,21.19
2023-04-11T17:23:11.597Z,21.18
2023-04-11T17:25:42.367Z,21.17
2023-04-11T17:28:10.222Z,21.20
2023-04-11T17:30:42.683Z,21.21
2023-04-11T17:33:10.504Z,21.20
2023-04-11T17:35:39.417Z,21.02
2023-04-11T17:38:07.551Z,21.15
2023-04-11T17:40:35.575Z,21.17
2023-04-11T17:43:03.729Z,20.77
2023-04-11T17:48:15.313Z,20.87
2023-04-11T17:50:46.569Z,21.13
2023-04-11T17:53:14.563Z,21.09
2023-04-11T17:55:42.562Z,21.27
2023-04-11T17:58:10.272Z,21.00
2023-04-11T18:00:48.466Z,20.72
2023-04-11T18:03:25.546Z,21.09
2023-04-11T18:05:56.897Z,20.91
2023-04-11T18:08:46.908Z,20.95
2023-04-11T18:11:15.159Z,21.11
2023-04-11T18:13:44.026Z,20.87
2023-04-11T18:16:11.958Z,20.89
2023-04-11T18:18:40.342Z,20.85
2023-04-11T18:21:11.964Z,21.06
2023-04-11T18:23:40.928Z,20.68
2023-04-11T18:26:08.674Z,20.99
2023-04-11T18:28:36.657Z,20.45
2023-04-11T18:31:06.033Z,20.93
2023-04-11T18:33:35.171Z,20.54
2023-04-11T18:36:04.244Z,20.76
2023-04-11T18:38:32.264Z,20.93
2023-04-11T18:41:04.678Z,20.73
2023-04-11T18:43:33.859Z,20.89
2023-04-11T18:46:02.358Z,20.87
2023-04-11T18:48:31.874Z,20.88
2023-04-11T18:51:00.627Z,20.47
2023-04-11T18:53:30.237Z,20.59
2023-04-11T18:56:03.166Z,20.78
2023-04-11T18:58:34.295Z,20.82
2023-04-11T19:01:14.586Z,20.61
2023-04-11T19:03:44.322Z,20.76
2023-04-11T19:06:13.203Z,20.76
2023-04-11T19:08:41.781Z,20.43
2023-04-11T19:11:09.651Z,20.78
2023-04-11T19:13:37.745Z,20.74
2023-04-11T19:16:07.481Z,20.73
2023-04-11T19:18:35.747Z,20.62
2023-04-11T19:21:07.017Z,20.66
2023-04-11T19:23:38.348Z,20.32
2023-04-11T19:26:06.465Z,20.29
2023-04-11T19:28:34.542Z,20.64
2023-04-11T19:31:04.667Z,20.67
2023-04-11T19:33:32.677Z,20.81
2023-04-11T19:36:00.622Z,20.54
2023-04-11T19:38:28.614Z,20.67
2023-04-11T19:40:57.258Z,20.84
2023-04-11T19:43:25.998Z,20.63
2023-04-11T19:45:54.064Z,20.70
2023-04-11T19:48:21.884Z,20.71
2023-04-11T19:50:49.904Z,20.85
2023-04-11T19:53:17.805Z,20.88
2023-04-11T19:55:54.202Z,20.79
2023-04-11T19:58:23.967Z,20.91
2023-04-11T20:00:55.293Z,20.33
2023-04-11T20:03:23.385Z,20.77
2023-04-11T20:05:51.371Z,20.82
2023-04-11T20:08:21.398Z,20.91
2023-04-11T20:10:49.370Z,20.83
2023-04-11T20:13:17.233Z,20.81
2023-04-11T20:15:45.368Z,20.93
2023-04-11T20:18:13.577Z,20.94
2023-04-11T20:20:41.613Z,21.06
2023-04-11T20:23:09.529Z,21.06
2023-04-11T20:25:37.466Z,21.06
2023-04-11T20:28:07.613Z,21.10
2023-04-11T20:30:38.708Z,20.87
2023-04-11T20:33:06.936Z,20.85
2023-04-11T20:35:34.908Z,21.10
2023-04-11T20:38:02.954Z,20.80
2023-04-11T20:40:30.762Z,20.87
2023-04-11T20:43:00.459Z,20.83
2023-04-11T20:45:30.125Z,20.84
2023-04-11T20:47:59.808Z,21.13
2023-04-11T20:50:33.351Z,21.10
2023-04-11T20:53:01.859Z,20.99
2023-04-11T20:55:30.997Z,21.11
2023-04-11T20:57:58.936Z,20.86
2023-04-11T21:00:27.320Z,20.67
2023-04-11T21:02:57.904Z,20.98
2023-04-11T21:05:26.607Z,20.69
2023-04-11T21:07:55.393Z,21.07
2023-04-11T21:10:23.414Z,21.06
2023-04-11T21:12:54.598Z,20.98
2023-04-11T21:15:23.067Z,20.70
2023-04-11T21:17:52.368Z,20.93
2023-04-11T21:20:21.462Z,20.82
2023-04-11T21:22:52.956Z,21.06
2023-04-11T21:25:21.404Z,20.85
2023-04-11T21:27:50.008Z,20.95
2023-04-11T21:30:17.790Z,20.82
2023-04-11T21:32:46.109Z,20.97
2023-04-11T21:35:15.436Z,20.93
2023-04-11T21:37:43.364Z,20.78
2023-04-11T21:40:12.826Z,19.81
2023-04-11T21:42:41.208Z,20.65
2023-04-11T21:45:09.133Z,20.90
2023-04-11T21:47:36.912Z,20.79
2023-04-11T21:50:05.050Z,20.85
2023-04-11T21:52:32.968Z,20.87
2023-04-11T21:55:00.616Z,20.70
2023-04-11T21:57:29.677Z,20.78
2023-04-11T21:59:57.593Z,20.97
2023-04-11T22:02:25.747Z,20.84
2023-04-11T22:07:33.156Z,20.85
2023-04-11T22:10:03.953Z,20.88
2023-04-11T22:12:31.680Z,20.92
2023-04-11T22:15:00.168Z,20.66
2023-04-11T22:17:30.344Z,20.83
2023-04-11T22:20:01.061Z,20.89
2023-04-11T22:22:30.428Z,20.80
2023-04-11T22:25:00.015Z,20.85
2023-04-11T22:27:29.571Z,20.89
2023-04-11T22:29:57.691Z,20.85
2023-04-11T22:32:26.710Z,20.76
2023-04-11T22:34:54.815Z,20.48
2023-04-11T22:37:22.886Z,20.84
2023-04-11T22:39:51.056Z,20.87
2023-04-11T22:42:19.019Z,20.56
2023-04-11T22:44:46.951Z,20.85
2023-04-11T22:47:16.884Z,20.79
2023-04-11T22:49:45.233Z,20.75
2023-04-11T22:52:19.097Z,20.58
2023-04-11T22:54:50.240Z,20.56
2023-04-11T22:57:18.315Z,20.60
2023-04-11T22:59:46.481Z,20.63
2023-04-11T23:02:14.798Z,20.47
2023-04-11T23:04:42.603Z,20.59
2023-04-11T23:07:11.425Z,20.53
2023-04-11T23:09:39.182Z,20.66
2023-04-11T23:12:08.531Z,20.60
2023-04-11T23:14:39.684Z,20.47
2023-04-11T23:17:07.679Z,20.85
2023-04-11T23:19:35.844Z,20.58
2023-04-11T23:22:03.729Z,20.81
2023-04-11T23:24:31.849Z,20.80
2023-04-11T23:26:59.600Z,20.68
2023-04-11T23:29:27.697Z,20.57
2023-04-11T23:31:55.578Z,20.60
2023-04-11T23:34:23.236Z,20.79
2023-04-11T23:36:51.947Z,20.57
2023-04-11T23:39:21.715Z,20.27
2023-04-11T23:41:52.386Z,20.39
2023-04-11T23:44:20.319Z,20.55
2023-04-11T23:46:48.189Z,20.71
2023-04-11T23:49:16.057Z,20.49
2023-04-11T23:51:44.280Z,20.53
2023-04-11T23:54:12.371Z,20.69
2023-04-11T23:56:41.666Z,20.53
2023-04-11T23:59:09.627Z,20.66
